GXA86 KBUR-KLAS
Flight info
| Callsign | GXA86 |
|---|---|
| Flight time | N/A |
| Altitude | 29000 |
| Route | SLAPP2 MISEN RNDRZ4 |
| Aircraft | B737/M-SDE2E3FGHIRWXY/LB1 |
Departure
| Time | 2026-05-04 01:47 |
|---|---|
| Airport | Hollywood Burbank/Bob Hope Airport (KBUR) |
Arrival
| Time | N/A |
|---|---|
| Airport | Harry Reid International Airport (KLAS) |
| Time | Latitude | Longitude | Altitude | Speed | Heading |
|---|---|---|---|---|---|
| 2026-05-04 01:33 | 34.19632 | -118.36462 | 727 ft | 0 kts | 179° |
| 2026-05-04 01:43 | 34.19636 | -118.36464 | 727 ft | 1 kts | 207° |
| 2026-05-04 01:43 | 34.19642 | -118.36432 | 725 ft | 5 kts | 307° |
| 2026-05-04 01:43 | 34.19633 | -118.36422 | 727 ft | 1 kts | 349° |
| 2026-05-04 01:43 | 34.19639 | -118.36420 | 726 ft | 1 kts | 18° |
| 2026-05-04 01:44 | 34.19641 | -118.36420 | 726 ft | 1 kts | 20° |
| 2026-05-04 01:44 | 34.19665 | -118.36417 | 729 ft | 11 kts | 350° |
| 2026-05-04 01:44 | 34.19689 | -118.36523 | 728 ft | 16 kts | 272° |
| 2026-05-04 01:44 | 34.19692 | -118.36659 | 731 ft | 16 kts | 271° |
| 2026-05-04 01:45 | 34.19693 | -118.36790 | 734 ft | 15 kts | 269° |
| 2026-05-04 01:45 | 34.19695 | -118.36846 | 734 ft | 0 kts | 276° |
| 2026-05-04 01:45 | 34.19707 | -118.36881 | 734 ft | 10 kts | 307° |
| 2026-05-04 01:46 | 34.19771 | -118.36897 | 734 ft | 10 kts | 24° |
| 2026-05-04 01:46 | 34.19792 | -118.36791 | 731 ft | 29 kts | 90° |
| 2026-05-04 01:46 | 34.19781 | -118.36186 | 725 ft | 114 kts | 92° |
| 2026-05-04 01:46 | 34.19753 | -118.34990 | 1014 ft | 155 kts | 96° |
| 2026-05-04 01:47 | 34.19617 | -118.33683 | 1884 ft | 163 kts | 111° |
| 2026-05-04 01:47 | 34.18887 | -118.32577 | 2593 ft | 175 kts | 155° |
| 2026-05-04 01:47 | 34.17701 | -118.32455 | 3319 ft | 182 kts | 203° |
| 2026-05-04 01:47 | 34.16774 | -118.33500 | 3794 ft | 190 kts | 240° |
| 2026-05-04 01:48 | 34.15954 | -118.34807 | 3994 ft | 206 kts | 220° |
| 2026-05-04 01:48 | 34.14831 | -118.35984 | 4043 ft | 228 kts | 221° |
| 2026-05-04 01:48 | 34.13858 | -118.37567 | 4820 ft | 240 kts | 246° |
| 2026-05-04 01:48 | 34.13363 | -118.39449 | 6040 ft | 231 kts | 262° |
| 2026-05-04 01:49 | 34.13571 | -118.41329 | 7155 ft | 232 kts | 292° |
| 2026-05-04 01:49 | 34.14572 | -118.42885 | 7973 ft | 244 kts | 321° |
| 2026-05-04 01:49 | 34.16141 | -118.43767 | 8794 ft | 254 kts | 339° |
| 2026-05-04 01:49 | 34.17862 | -118.44384 | 9639 ft | 261 kts | 341° |
| 2026-05-04 01:50 | 34.19663 | -118.44983 | 10213 ft | 279 kts | 341° |
| 2026-05-04 01:50 | 34.21627 | -118.45637 | 10479 ft | 308 kts | 341° |
| 2026-05-04 01:50 | 34.23848 | -118.46025 | 10671 ft | 342 kts | 3° |
| 2026-05-04 01:50 | 34.26219 | -118.45174 | 10900 ft | 372 kts | 24° |
| 2026-05-04 01:51 | 34.28586 | -118.43668 | 11140 ft | 394 kts | 28° |
| 2026-05-04 01:51 | 34.31038 | -118.42052 | 11700 ft | 405 kts | 27° |
| 2026-05-04 01:51 | 34.33553 | -118.40476 | 12476 ft | 409 kts | 26° |
| 2026-05-04 01:51 | 34.36127 | -118.38950 | 13201 ft | 414 kts | 25° |
| 2026-05-04 01:52 | 34.38746 | -118.37459 | 13952 ft | 417 kts | 24° |
| 2026-05-04 01:52 | 34.41399 | -118.35972 | 14566 ft | 423 kts | 23° |
| 2026-05-04 01:52 | 34.44085 | -118.34469 | 14950 ft | 427 kts | 23° |
| 2026-05-04 01:52 | 34.46695 | -118.32817 | 14948 ft | 431 kts | 31° |
| 2026-05-04 01:53 | 34.49104 | -118.30652 | 14962 ft | 431 kts | 39° |
| 2026-05-04 01:53 | 34.51408 | -118.28301 | 15134 ft | 436 kts | 40° |
| 2026-05-04 01:53 | 34.53727 | -118.25905 | 15810 ft | 439 kts | 39° |
| 2026-05-04 01:53 | 34.56073 | -118.23504 | 16463 ft | 443 kts | 39° |
| 2026-05-04 01:54 | 34.58457 | -118.21097 | 17028 ft | 448 kts | 38° |
| 2026-05-04 01:54 | 34.60872 | -118.18676 | 17232 ft | 452 kts | 38° |
| 2026-05-04 01:54 | 34.63164 | -118.16356 | 17229 ft | 451 kts | 40° |
| 2026-05-04 01:54 | 34.65251 | -118.13516 | 17231 ft | 452 kts | 55° |
| 2026-05-04 01:55 | 34.66791 | -118.10197 | 17245 ft | 452 kts | 68° |
| 2026-05-04 01:55 | 34.67729 | -118.06564 | 17229 ft | 450 kts | 80° |
| 2026-05-04 01:55 | 34.68289 | -118.02831 | 17237 ft | 450 kts | 82° |
| 2026-05-04 01:55 | 34.68858 | -117.99087 | 17228 ft | 451 kts | 81° |
| 2026-05-04 01:56 | 34.69342 | -117.95329 | 17219 ft | 449 kts | 87° |
| 2026-05-04 01:56 | 34.69576 | -117.91549 | 17223 ft | 449 kts | 89° |
| 2026-05-04 01:56 | 34.69770 | -117.87812 | 17210 ft | 449 kts | 89° |
| 2026-05-04 01:56 | 34.69970 | -117.84016 | 17203 ft | 450 kts | 89° |
| 2026-05-04 01:57 | 34.70187 | -117.80225 | 17161 ft | 451 kts | 88° |
| 2026-05-04 01:57 | 34.70413 | -117.76433 | 17164 ft | 451 kts | 88° |
| 2026-05-04 01:57 | 34.70601 | -117.72863 | 17159 ft | 451 kts | 89° |
| 2026-05-04 01:57 | 34.70756 | -117.68971 | 17154 ft | 450 kts | 90° |
| 2026-05-04 01:58 | 34.70893 | -117.65167 | 17176 ft | 451 kts | 89° |
| 2026-05-04 01:58 | 34.71572 | -117.61403 | 17198 ft | 462 kts | 67° |
| 2026-05-04 01:58 | 34.73325 | -117.58119 | 17640 ft | 467 kts | 46° |
| 2026-05-04 01:58 | 34.75759 | -117.55539 | 17876 ft | 461 kts | 30° |
| 2026-05-04 01:59 | 34.77624 | -117.54348 | 17886 ft | 456 kts | 18° |
| 2026-05-04 01:59 | 34.80675 | -117.53439 | 17881 ft | 448 kts | 0° |
| 2026-05-04 01:59 | 34.84685 | -117.53912 | 17871 ft | 431 kts | 338° |
| 2026-05-04 01:59 | 34.87391 | -117.55394 | 17842 ft | 423 kts | 322° |
| 2026-05-04 02:00 | 34.89625 | -117.57654 | 17849 ft | 414 kts | 307° |
| 2026-05-04 02:00 | 34.91116 | -117.60568 | 17865 ft | 403 kts | 289° |
| 2026-05-04 02:00 | 34.91738 | -117.62737 | 17855 ft | 399 kts | 281° |
| 2026-05-04 02:00 | 34.92451 | -117.66005 | 17870 ft | 402 kts | 282° |
| 2026-05-04 02:01 | 34.93211 | -117.69329 | 17873 ft | 411 kts | 282° |
| 2026-05-04 02:01 | 34.94002 | -117.72685 | 17863 ft | 411 kts | 283° |
| 2026-05-04 02:01 | 34.94800 | -117.76019 | 17859 ft | 410 kts | 283° |
| 2026-05-04 02:01 | 34.95593 | -117.79304 | 17864 ft | 409 kts | 283° |
| 2026-05-04 02:02 | 34.96397 | -117.82632 | 17866 ft | 410 kts | 283° |
| 2026-05-04 02:02 | 34.97201 | -117.85962 | 17869 ft | 410 kts | 283° |
| 2026-05-04 02:02 | 34.98007 | -117.89308 | 17821 ft | 413 kts | 283° |
| 2026-05-04 02:02 | 34.98815 | -117.92670 | 17542 ft | 412 kts | 283° |
| 2026-05-04 02:03 | 34.99619 | -117.96014 | 17283 ft | 410 kts | 283° |
| 2026-05-04 02:03 | 35.00420 | -117.99354 | 17033 ft | 410 kts | 283° |
| 2026-05-04 02:03 | 35.01219 | -118.02691 | 16806 ft | 409 kts | 283° |
| 2026-05-04 02:03 | 35.02013 | -118.06014 | 16401 ft | 410 kts | 283° |
| 2026-05-04 02:04 | 35.02817 | -118.09390 | 15612 ft | 414 kts | 283° |
| 2026-05-04 02:04 | 35.03618 | -118.12750 | 14934 ft | 410 kts | 283° |
| 2026-05-04 02:04 | 35.04404 | -118.16046 | 14506 ft | 397 kts | 283° |
| 2026-05-04 02:04 | 35.05156 | -118.19188 | 14372 ft | 375 kts | 283° |
| 2026-05-04 02:05 | 35.05874 | -118.22201 | 13882 ft | 367 kts | 282° |
| 2026-05-04 02:05 | 35.06692 | -118.25147 | 13127 ft | 369 kts | 290° |
| 2026-05-04 02:05 | 35.07835 | -118.27970 | 12403 ft | 368 kts | 293° |
| 2026-05-04 02:05 | 35.09000 | -118.30734 | 11814 ft | 365 kts | 293° |
| 2026-05-04 02:06 | 35.10152 | -118.33463 | 11420 ft | 356 kts | 294° |
| 2026-05-04 02:06 | 35.11274 | -118.36134 | 11160 ft | 350 kts | 293° |
| 2026-05-04 02:06 | 35.12377 | -118.38791 | 10898 ft | 353 kts | 293° |
| 2026-05-04 02:06 | 35.13492 | -118.41499 | 10642 ft | 358 kts | 294° |
| 2026-05-04 02:07 | 35.14595 | -118.44188 | 10369 ft | 358 kts | 294° |
| 2026-05-04 02:07 | 35.15711 | -118.46908 | 10119 ft | 356 kts | 294° |
| 2026-05-04 02:07 | 35.16710 | -118.49656 | 9996 ft | 352 kts | 282° |
| 2026-05-04 02:07 | 35.16835 | -118.52619 | 9997 ft | 353 kts | 261° |
| 2026-05-04 02:08 | 35.16367 | -118.55545 | 9981 ft | 349 kts | 255° |
| 2026-05-04 02:08 | 35.15801 | -118.58384 | 9869 ft | 338 kts | 254° |
| 2026-05-04 02:08 | 35.15239 | -118.61090 | 9773 ft | 317 kts | 254° |
| 2026-05-04 02:08 | 35.14714 | -118.63608 | 9579 ft | 294 kts | 254° |
| 2026-05-04 02:09 | 35.14224 | -118.65950 | 9376 ft | 275 kts | 254° |
| 2026-05-04 02:09 | 35.13758 | -118.68157 | 9033 ft | 269 kts | 255° |
| 2026-05-04 02:09 | 35.13360 | -118.70407 | 8814 ft | 274 kts | 267° |
| 2026-05-04 02:09 | 35.13840 | -118.72637 | 8716 ft | 276 kts | 301° |
| 2026-05-04 02:10 | 35.15201 | -118.74222 | 8655 ft | 267 kts | 321° |
| 2026-05-04 02:10 | 35.16631 | -118.75606 | 8417 ft | 261 kts | 318° |
| 2026-05-04 02:10 | 35.18034 | -118.77055 | 7944 ft | 266 kts | 317° |
| 2026-05-04 02:10 | 35.19434 | -118.78540 | 7459 ft | 266 kts | 318° |
| 2026-05-04 02:11 | 35.20785 | -118.79992 | 7284 ft | 247 kts | 318° |
| 2026-05-04 02:11 | 35.22022 | -118.81331 | 7118 ft | 226 kts | 318° |
| 2026-05-04 02:11 | 35.23160 | -118.82571 | 6791 ft | 217 kts | 318° |
| 2026-05-04 02:11 | 35.24280 | -118.83795 | 6300 ft | 215 kts | 319° |
| 2026-05-04 02:12 | 35.25391 | -118.85011 | 5800 ft | 212 kts | 319° |
| 2026-05-04 02:12 | 35.26457 | -118.86181 | 5392 ft | 204 kts | 319° |
| 2026-05-04 02:12 | 35.27510 | -118.87337 | 4913 ft | 202 kts | 319° |
| 2026-05-04 02:12 | 35.28550 | -118.88480 | 4402 ft | 200 kts | 319° |
| 2026-05-04 02:13 | 35.29566 | -118.89597 | 3895 ft | 198 kts | 318° |
| 2026-05-04 02:13 | 35.30581 | -118.90713 | 3400 ft | 196 kts | 317° |
| 2026-05-04 02:13 | 35.31567 | -118.91799 | 3161 ft | 182 kts | 317° |
| 2026-05-04 02:13 | 35.32479 | -118.92803 | 2947 ft | 168 kts | 317° |
| 2026-05-04 02:14 | 35.33313 | -118.93721 | 2904 ft | 155 kts | 316° |
| 2026-05-04 02:14 | 35.34105 | -118.94594 | 2907 ft | 155 kts | 315° |
| 2026-05-04 02:14 | 35.34941 | -118.95523 | 2773 ft | 177 kts | 317° |
| 2026-05-04 02:14 | 35.35941 | -118.96607 | 2478 ft | 203 kts | 315° |
| 2026-05-04 02:15 | 35.36921 | -118.97760 | 2202 ft | 182 kts | 314° |
| 2026-05-04 02:15 | 35.37748 | -118.98780 | 1984 ft | 158 kts | 312° |
| 2026-05-04 02:15 | 35.38461 | -118.99683 | 1841 ft | 136 kts | 312° |
| 2026-05-04 02:15 | 35.39091 | -119.00467 | 1711 ft | 129 kts | 315° |
| 2026-05-04 02:16 | 35.39738 | -119.01217 | 1460 ft | 127 kts | 314° |
| 2026-05-04 02:16 | 35.40354 | -119.01931 | 1293 ft | 117 kts | 311° |
| 2026-05-04 02:16 | 35.40917 | -119.02661 | 1047 ft | 119 kts | 312° |
| 2026-05-04 02:16 | 35.41523 | -119.03385 | 922 ft | 123 kts | 315° |
| 2026-05-04 02:17 | 35.42138 | -119.04118 | 748 ft | 122 kts | 312° |
| 2026-05-04 02:17 | 35.42730 | -119.04840 | 633 ft | 120 kts | 313° |
| 2026-05-04 02:17 | 35.43315 | -119.05538 | 509 ft | 111 kts | 314° |
| 2026-05-04 02:17 | 35.43797 | -119.06124 | 502 ft | 81 kts | 316° |
| 2026-05-04 02:18 | 35.44109 | -119.06491 | 508 ft | 34 kts | 322° |
| 2026-05-04 02:18 | 35.44225 | -119.06453 | 507 ft | 13 kts | 61° |
| 2026-05-04 02:18 | 35.44189 | -119.06366 | 506 ft | 12 kts | 136° |